sensor_id;sensor_type;location;lat;lon;timestamp;temperature;humidity
9987;DHT22;5033;46.310;11.214;2023-04-01T00:00:46;8.80;99.90
9987;DHT22;5033;46.310;11.214;2023-04-01T00:03:13;8.80;99.90
9987;DHT22;5033;46.310;11.214;2023-04-01T00:05:40;8.80;99.90
9987;DHT22;5033;46.310;11.214;2023-04-01T00:08:07;8.80;99.90
9987;DHT22;5033;46.310;11.214;2023-04-01T00:10:35;8.70;99.90
9987;DHT22;5033;46.310;11.214;2023-04-01T00:13:02;8.70;99.90
9987;DHT22;5033;46.310;11.214;2023-04-01T00:15:30;8.70;99.90
9987;DHT22;5033;46.310;11.214;2023-04-01T00:17:57;8.70;99.90
9987;DHT22;5033;46.310;11.214;2023-04-01T00:20:24;8.70;99.90
9987;DHT22;5033;46.310;11.214;2023-04-01T00:22:51;8.70;99.90
9987;DHT22;5033;46.310;11.214;2023-04-01T00:25:18;8.70;99.90
9987;DHT22;5033;46.310;11.214;2023-04-01T00:27:47;8.60;99.90
9987;DHT22;5033;46.310;11.214;2023-04-01T00:30:15;8.60;99.90
9987;DHT22;5033;46.310;11.214;2023-04-01T00:32:42;8.50;99.90
9987;DHT22;5033;46.310;11.214;2023-04-01T00:35:09;8.50;99.90
9987;DHT22;5033;46.310;11.214;2023-04-01T00:37:38;8.40;99.90
9987;DHT22;5033;46.310;11.214;2023-04-01T00:40:07;8.40;99.90
9987;DHT22;5033;46.310;11.214;2023-04-01T00:42:35;8.50;99.90
9987;DHT22;5033;46.310;11.214;2023-04-01T00:45:28;8.50;99.90
9987;DHT22;5033;46.310;11.214;2023-04-01T00:47:58;8.40;99.90
9987;DHT22;5033;46.310;11.214;2023-04-01T00:50:26;8.40;99.90
9987;DHT22;5033;46.310;11.214;2023-04-01T00:52:55;8.40;99.90
9987;DHT22;5033;46.310;11.214;2023-04-01T00:55:23;8.30;99.90
9987;DHT22;5033;46.310;11.214;2023-04-01T00:57:52;8.10;99.90
9987;DHT22;5033;46.310;11.214;2023-04-01T01:00:20;8.00;99.90
9987;DHT22;5033;46.310;11.214;2023-04-01T01:02:50;7.90;99.90
9987;DHT22;5033;46.310;11.214;2023-04-01T01:05:19;7.80;99.90
9987;DHT22;5033;46.310;11.214;2023-04-01T01:07:55;7.80;99.90
9987;DHT22;5033;46.310;11.214;2023-04-01T01:10:30;7.80;99.90
9987;DHT22;5033;46.310;11.214;2023-04-01T01:13:04;7.80;99.90
9987;DHT22;5033;46.310;11.214;2023-04-01T01:15:39;7.90;99.90
9987;DHT22;5033;46.310;11.214;2023-04-01T01:18:18;8.00;99.90
9987;DHT22;5033;46.310;11.214;2023-04-01T01:21:04;7.90;99.90
9987;DHT22;5033;46.310;11.214;2023-04-01T01:23:57;7.90;99.90
9987;DHT22;5033;46.310;11.214;2023-04-01T01:26:46;7.90;99.90
9987;DHT22;5033;46.310;11.214;2023-04-01T01:32:51;7.70;99.90
9987;DHT22;5033;46.310;11.214;2023-04-01T01:35:25;7.70;99.90
9987;DHT22;5033;46.310;11.214;2023-04-01T01:37:56;7.70;99.90
9987;DHT22;5033;46.310;11.214;2023-04-01T01:40:26;7.60;99.90
9987;DHT22;5033;46.310;11.214;2023-04-01T01:42:57;7.60;99.90
9987;DHT22;5033;46.310;11.214;2023-04-01T01:45:27;7.50;99.90
9987;DHT22;5033;46.310;11.214;2023-04-01T01:47:56;7.50;99.90
9987;DHT22;5033;46.310;11.214;2023-04-01T01:50:26;7.50;99.90
9987;DHT22;5033;46.310;11.214;2023-04-01T01:53:01;7.50;99.90
9987;DHT22;5033;46.310;11.214;2023-04-01T01:55:31;7.50;99.90
9987;DHT22;5033;46.310;11.214;2023-04-01T01:58:00;7.50;99.90
9987;DHT22;5033;46.310;11.214;2023-04-01T02:00:28;7.40;99.90
9987;DHT22;5033;46.310;11.214;2023-04-01T02:02:56;7.50;99.90
9987;DHT22;5033;46.310;11.214;2023-04-01T02:05:27;7.50;99.90
9987;DHT22;5033;46.310;11.214;2023-04-01T02:08:01;7.50;99.90
9987;DHT22;5033;46.310;11.214;2023-04-01T02:10:31;7.60;99.90
9987;DHT22;5033;46.310;11.214;2023-04-01T02:13:05;7.50;99.90
9987;DHT22;5033;46.310;11.214;2023-04-01T02:15:40;7.50;99.90
9987;DHT22;5033;46.310;11.214;2023-04-01T02:18:08;7.60;99.90
9987;DHT22;5033;46.310;11.214;2023-04-01T02:20:38;7.60;99.90
9987;DHT22;5033;46.310;11.214;2023-04-01T02:23:07;7.60;99.90
9987;DHT22;5033;46.310;11.214;2023-04-01T02:25:37;7.60;99.90
9987;DHT22;5033;46.310;11.214;2023-04-01T02:28:06;7.70;99.90
9987;DHT22;5033;46.310;11.214;2023-04-01T02:30:35;7.70;99.90
9987;DHT22;5033;46.310;11.214;2023-04-01T02:33:04;7.70;99.90
9987;DHT22;5033;46.310;11.214;2023-04-01T02:35:34;7.70;99.90
9987;DHT22;5033;46.310;11.214;2023-04-01T02:38:04;7.70;99.90
9987;DHT22;5033;46.310;11.214;2023-04-01T02:40:45;7.70;99.90
9987;DHT22;5033;46.310;11.214;2023-04-01T02:43:13;7.70;99.90
9987;DHT22;5033;46.310;11.214;2023-04-01T02:45:40;7.70;99.90
9987;DHT22;5033;46.310;11.214;2023-04-01T02:48:07;7.70;99.90
9987;DHT22;5033;46.310;11.214;2023-04-01T02:50:34;7.70;99.90
9987;DHT22;5033;46.310;11.214;2023-04-01T02:53:02;7.60;99.90
9987;DHT22;5033;46.310;11.214;2023-04-01T02:55:31;7.60;99.90
9987;DHT22;5033;46.310;11.214;2023-04-01T02:57:59;7.60;99.90
9987;DHT22;5033;46.310;11.214;2023-04-01T03:00:26;7.60;99.90
9987;DHT22;5033;46.310;11.214;2023-04-01T03:02:53;7.60;99.90
9987;DHT22;5033;46.310;11.214;2023-04-01T03:05:20;7.60;99.90
9987;DHT22;5033;46.310;11.214;2023-04-01T03:07:47;7.50;99.90
9987;DHT22;5033;46.310;11.214;2023-04-01T03:10:16;7.50;99.90
9987;DHT22;5033;46.310;11.214;2023-04-01T03:12:43;7.50;99.90
9987;DHT22;5033;46.310;11.214;2023-04-01T03:15:11;7.50;99.90
9987;DHT22;5033;46.310;11.214;2023-04-01T03:17:40;7.50;99.90
9987;DHT22;5033;46.310;11.214;2023-04-01T03:20:08;7.50;99.90
9987;DHT22;5033;46.310;11.214;2023-04-01T03:22:36;7.60;99.90
9987;DHT22;5033;46.310;11.214;2023-04-01T03:25:05;7.50;99.90
9987;DHT22;5033;46.310;11.214;2023-04-01T03:27:34;7.50;99.90
9987;DHT22;5033;46.310;11.214;2023-04-01T03:30:02;7.50;99.90
9987;DHT22;5033;46.310;11.214;2023-04-01T03:32:29;7.50;99.90
9987;DHT22;5033;46.310;11.214;2023-04-01T03:34:56;7.50;99.90
9987;DHT22;5033;46.310;11.214;2023-04-01T03:37:23;7.50;99.90
9987;DHT22;5033;46.310;11.214;2023-04-01T03:39:50;7.50;99.90
9987;DHT22;5033;46.310;11.214;2023-04-01T03:42:17;7.50;99.90
9987;DHT22;5033;46.310;11.214;2023-04-01T03:44:46;7.50;99.90
9987;DHT22;5033;46.310;11.214;2023-04-01T03:47:13;7.50;99.90
9987;DHT22;5033;46.310;11.214;2023-04-01T03:49:40;7.50;99.90
9987;DHT22;5033;46.310;11.214;2023-04-01T03:52:09;7.40;99.90
9987;DHT22;5033;46.310;11.214;2023-04-01T03:54:37;7.40;99.90
9987;DHT22;5033;46.310;11.214;2023-04-01T03:57:04;7.30;99.90
9987;DHT22;5033;46.310;11.214;2023-04-01T03:59:34;7.30;99.90
9987;DHT22;5033;46.310;11.214;2023-04-01T04:02:03;7.30;99.90
9987;DHT22;5033;46.310;11.214;2023-04-01T04:04:30;7.20;99.90
9987;DHT22;5033;46.310;11.214;2023-04-01T04:06:57;7.10;99.90
9987;DHT22;5033;46.310;11.214;2023-04-01T04:09:24;7.10;99.90
9987;DHT22;5033;46.310;11.214;2023-04-01T04:11:51;7.10;99.90
9987;DHT22;5033;46.310;11.214;2023-04-01T04:14:19;7.10;99.90
9987;DHT22;5033;46.310;11.214;2023-04-01T04:16:46;7.20;99.90
9987;DHT22;5033;46.310;11.214;2023-04-01T04:19:14;7.20;99.90
9987;DHT22;5033;46.310;11.214;2023-04-01T04:21:42;7.20;99.90
9987;DHT22;5033;46.310;11.214;2023-04-01T04:24:09;7.10;99.90
9987;DHT22;5033;46.310;11.214;2023-04-01T04:26:36;7.10;99.90
9987;DHT22;5033;46.310;11.214;2023-04-01T04:29:03;7.10;99.90
9987;DHT22;5033;46.310;11.214;2023-04-01T04:31:30;7.10;99.90
9987;DHT22;5033;46.310;11.214;2023-04-01T04:33:59;7.10;99.90
9987;DHT22;5033;46.310;11.214;2023-04-01T04:36:27;7.10;99.90
9987;DHT22;5033;46.310;11.214;2023-04-01T04:38:54;7.00;99.90
9987;DHT22;5033;46.310;11.214;2023-04-01T04:41:23;7.00;99.90
9987;DHT22;5033;46.310;11.214;2023-04-01T04:43:53;7.00;99.90
9987;DHT22;5033;46.310;11.214;2023-04-01T04:46:20;7.00;99.90
9987;DHT22;5033;46.310;11.214;2023-04-01T04:48:48;6.90;99.90
9987;DHT22;5033;46.310;11.214;2023-04-01T04:51:15;6.90;99.90
9987;DHT22;5033;46.310;11.214;2023-04-01T04:53:44;6.90;99.90
9987;DHT22;5033;46.310;11.214;2023-04-01T04:56:11;6.80;99.90
9987;DHT22;5033;46.310;11.214;2023-04-01T04:58:40;6.80;99.90
9987;DHT22;5033;46.310;11.214;2023-04-01T05:01:08;6.70;99.90
9987;DHT22;5033;46.310;11.214;2023-04-01T05:03:36;6.80;99.90
9987;DHT22;5033;46.310;11.214;2023-04-01T05:06:03;6.80;99.90
9987;DHT22;5033;46.310;11.214;2023-04-01T05:08:30;6.70;99.90
9987;DHT22;5033;46.310;11.214;2023-04-01T05:10:59;6.70;99.90
9987;DHT22;5033;46.310;11.214;2023-04-01T05:13:26;6.60;99.90
9987;DHT22;5033;46.310;11.214;2023-04-01T05:15:53;6.50;99.90
9987;DHT22;5033;46.310;11.214;2023-04-01T05:18:20;6.50;99.90
9987;DHT22;5033;46.310;11.214;2023-04-01T05:20:48;6.50;99.90
9987;DHT22;5033;46.310;11.214;2023-04-01T05:23:16;6.60;99.90
9987;DHT22;5033;46.310;11.214;2023-04-01T05:25:43;6.60;99.90
9987;DHT22;5033;46.310;11.214;2023-04-01T05:28:12;6.70;99.90
9987;DHT22;5033;46.310;11.214;2023-04-01T05:30:44;6.70;99.90
9987;DHT22;5033;46.310;11.214;2023-04-01T05:33:12;6.80;99.90
9987;DHT22;5033;46.310;11.214;2023-04-01T05:35:40;7.10;99.90
9987;DHT22;5033;46.310;11.214;2023-04-01T05:38:07;7.50;99.90
9987;DHT22;5033;46.310;11.214;2023-04-01T05:40:34;7.90;99.90
9987;DHT22;5033;46.310;11.214;2023-04-01T05:43:01;8.20;99.90
9987;DHT22;5033;46.310;11.214;2023-04-01T05:45:30;8.60;99.90
9987;DHT22;5033;46.310;11.214;2023-04-01T05:47:57;9.00;99.90
9987;DHT22;5033;46.310;11.214;2023-04-01T05:50:23;9.30;99.90
9987;DHT22;5033;46.310;11.214;2023-04-01T05:52:50;9.70;99.90
9987;DHT22;5033;46.310;11.214;2023-04-01T05:55:17;10.00;99.90
9987;DHT22;5033;46.310;11.214;2023-04-01T05:57:45;10.20;99.90
9987;DHT22;5033;46.310;11.214;2023-04-01T06:00:14;10.50;99.90
9987;DHT22;5033;46.310;11.214;2023-04-01T06:02:43;10.70;99.90
9987;DHT22;5033;46.310;11.214;2023-04-01T06:05:15;11.00;99.90
9987;DHT22;5033;46.310;11.214;2023-04-01T06:07:43;11.20;99.90
9987;DHT22;5033;46.310;11.214;2023-04-01T06:10:13;11.30;99.90
9987;DHT22;5033;46.310;11.214;2023-04-01T06:12:46;11.40;99.90
9987;DHT22;5033;46.310;11.214;2023-04-01T06:15:20;11.60;99.90
9987;DHT22;5033;46.310;11.214;2023-04-01T06:20:59;12.10;99.90
9987;DHT22;5033;46.310;11.214;2023-04-01T06:23:37;12.20;99.90
9987;DHT22;5033;46.310;11.214;2023-04-01T06:26:15;12.40;99.90
9987;DHT22;5033;46.310;11.214;2023-04-01T06:29:13;12.40;99.90
9987;DHT22;5033;46.310;11.214;2023-04-01T06:32:21;12.50;99.90
9987;DHT22;5033;46.310;11.214;2023-04-01T06:35:08;12.80;99.90
9987;DHT22;5033;46.310;11.214;2023-04-01T06:38:17;13.10;99.90
9987;DHT22;5033;46.310;11.214;2023-04-01T06:43:59;12.30;99.90
9987;DHT22;5033;46.310;11.214;2023-04-01T06:46:40;12.20;99.90
9987;DHT22;5033;46.310;11.214;2023-04-01T06:49:21;12.10;99.90
9987;DHT22;5033;46.310;11.214;2023-04-01T06:51:56;11.80;99.90
9987;DHT22;5033;46.310;11.214;2023-04-01T06:54:32;11.40;99.90
9987;DHT22;5033;46.310;11.214;2023-04-01T06:57:05;11.10;99.90
9987;DHT22;5033;46.310;11.214;2023-04-01T06:59:37;11.30;99.90
9987;DHT22;5033;46.310;11.214;2023-04-01T07:02:14;11.60;99.90
9987;DHT22;5033;46.310;11.214;2023-04-01T07:04:45;11.90;99.90
9987;DHT22;5033;46.310;11.214;2023-04-01T07:07:19;12.00;99.90
9987;DHT22;5033;46.310;11.214;2023-04-01T07:09:51;12.20;99.90
9987;DHT22;5033;46.310;11.214;2023-04-01T07:12:36;12.40;99.90
9987;DHT22;5033;46.310;11.214;2023-04-01T07:15:14;12.90;99.90
9987;DHT22;5033;46.310;11.214;2023-04-01T07:17:43;13.00;99.90
9987;DHT22;5033;46.310;11.214;2023-04-01T07:20:16;12.70;99.90
9987;DHT22;5033;46.310;11.214;2023-04-01T07:22:48;12.50;99.90
9987;DHT22;5033;46.310;11.214;2023-04-01T07:25:20;12.80;99.90
9987;DHT22;5033;46.310;11.214;2023-04-01T07:27:47;13.00;99.90
9987;DHT22;5033;46.310;11.214;2023-04-01T07:30:16;12.80;99.90
9987;DHT22;5033;46.310;11.214;2023-04-01T07:32:47;12.60;99.90
9987;DHT22;5033;46.310;11.214;2023-04-01T07:35:23;12.50;99.90
9987;DHT22;5033;46.310;11.214;2023-04-01T07:38:10;12.60;99.90
9987;DHT22;5033;46.310;11.214;2023-04-01T07:40:46;13.00;99.90
9987;DHT22;5033;46.310;11.214;2023-04-01T07:43:28;13.10;99.90
9987;DHT22;5033;46.310;11.214;2023-04-01T07:46:03;12.90;99.90
9987;DHT22;5033;46.310;11.214;2023-04-01T07:48:41;12.60;99.90
9987;DHT22;5033;46.310;11.214;2023-04-01T07:51:15;12.20;99.90
9987;DHT22;5033;46.310;11.214;2023-04-01T07:53:47;12.00;99.90
9987;DHT22;5033;46.310;11.214;2023-04-01T07:56:22;11.80;99.90
9987;DHT22;5033;46.310;11.214;2023-04-01T07:58:58;11.50;99.90
9987;DHT22;5033;46.310;11.214;2023-04-01T08:01:34;11.20;99.90
9987;DHT22;5033;46.310;11.214;2023-04-01T08:04:14;11.10;99.90
9987;DHT22;5033;46.310;11.214;2023-04-01T08:06:49;11.10;99.90
9987;DHT22;5033;46.310;11.214;2023-04-01T08:09:25;11.00;99.90
9987;DHT22;5033;46.310;11.214;2023-04-01T08:12:04;11.00;99.90
9987;DHT22;5033;46.310;11.214;2023-04-01T08:14:44;11.20;99.90
9987;DHT22;5033;46.310;11.214;2023-04-01T08:17:19;11.50;99.90
9987;DHT22;5033;46.310;11.214;2023-04-01T08:20:00;11.80;99.90
9987;DHT22;5033;46.310;11.214;2023-04-01T08:22:34;12.00;99.90
9987;DHT22;5033;46.310;11.214;2023-04-01T08:25:04;12.30;99.90
9987;DHT22;5033;46.310;11.214;2023-04-01T08:27:37;12.50;99.90
9987;DHT22;5033;46.310;11.214;2023-04-01T08:30:16;12.80;99.90
9987;DHT22;5033;46.310;11.214;2023-04-01T08:32:48;13.00;99.90
9987;DHT22;5033;46.310;11.214;2023-04-01T08:35:24;13.10;99.90
9987;DHT22;5033;46.310;11.214;2023-04-01T08:37:53;13.50;99.90
9987;DHT22;5033;46.310;11.214;2023-04-01T08:40:43;13.90;99.90
9987;DHT22;5033;46.310;11.214;2023-04-01T08:43:25;14.30;99.90
9987;DHT22;5033;46.310;11.214;2023-04-01T08:46:12;14.50;99.90
9987;DHT22;5033;46.310;11.214;2023-04-01T08:48:53;14.60;99.90
9987;DHT22;5033;46.310;11.214;2023-04-01T08:51:52;14.70;99.90
9987;DHT22;5033;46.310;11.214;2023-04-01T08:54:42;14.70;99.90
9987;DHT22;5033;46.310;11.214;2023-04-01T08:57:18;14.90;99.90
9987;DHT22;5033;46.310;11.214;2023-04-01T09:00:05;14.90;99.90
9987;DHT22;5033;46.310;11.214;2023-04-01T09:05:59;15.30;99.90
9987;DHT22;5033;46.310;11.214;2023-04-01T09:08:43;15.40;99.90
9987;DHT22;5033;46.310;11.214;2023-04-01T09:11:23;15.60;99.90
9987;DHT22;5033;46.310;11.214;2023-04-01T09:14:09;15.80;99.90
9987;DHT22;5033;46.310;11.214;2023-04-01T09:19:54;15.40;99.90
9987;DHT22;5033;46.310;11.214;2023-04-01T09:25:32;15.80;99.90
9987;DHT22;5033;46.310;11.214;2023-04-01T09:28:09;15.90;99.90
9987;DHT22;5033;46.310;11.214;2023-04-01T09:31:01;15.80;99.90
9987;DHT22;5033;46.310;11.214;2023-04-01T09:33:54;15.90;99.90
9987;DHT22;5033;46.310;11.214;2023-04-01T09:36:42;16.10;99.90
9987;DHT22;5033;46.310;11.214;2023-04-01T09:39:33;16.40;99.90
9987;DHT22;5033;46.310;11.214;2023-04-01T09:42:29;16.70;99.90
9987;DHT22;5033;46.310;11.214;2023-04-01T09:45:05;16.80;99.90
9987;DHT22;5033;46.310;11.214;2023-04-01T09:47:47;16.70;99.90
9987;DHT22;5033;46.310;11.214;2023-04-01T09:50:30;16.90;99.90
9987;DHT22;5033;46.310;11.214;2023-04-01T09:53:07;17.00;99.90
9987;DHT22;5033;46.310;11.214;2023-04-01T09:55:58;17.00;99.90
9987;DHT22;5033;46.310;11.214;2023-04-01T10:01:45;16.50;99.90
9987;DHT22;5033;46.310;11.214;2023-04-01T10:07:52;17.10;99.90
9987;DHT22;5033;46.310;11.214;2023-04-01T10:10:53;17.40;99.90
9987;DHT22;5033;46.310;11.214;2023-04-01T10:13:48;17.40;99.90
9987;DHT22;5033;46.310;11.214;2023-04-01T10:19:56;16.80;99.90
9987;DHT22;5033;46.310;11.214;2023-04-01T10:29:13;18.10;99.90
9987;DHT22;5033;46.310;11.214;2023-04-01T10:32:19;17.90;99.90
9987;DHT22;5033;46.310;11.214;2023-04-01T10:41:25;16.90;99.90
9987;DHT22;5033;46.310;11.214;2023-04-01T10:47:34;18.00;99.90
9987;DHT22;5033;46.310;11.214;2023-04-01T10:50:22;18.50;99.90
9987;DHT22;5033;46.310;11.214;2023-04-01T11:02:33;18.40;99.90
9987;DHT22;5033;46.310;11.214;2023-04-01T11:05:42;18.90;99.90
9987;DHT22;5033;46.310;11.214;2023-04-01T11:20:33;18.30;99.90
9987;DHT22;5033;46.310;11.214;2023-04-01T11:23:28;17.50;99.90
9987;DHT22;5033;46.310;11.214;2023-04-01T11:26:07;17.80;99.90
9987;DHT22;5033;46.310;11.214;2023-04-01T11:29:00;18.40;99.90
9987;DHT22;5033;46.310;11.214;2023-04-01T11:31:37;19.00;99.90
9987;DHT22;5033;46.310;11.214;2023-04-01T11:34:16;19.10;99.90
9987;DHT22;5033;46.310;11.214;2023-04-01T11:36:57;18.80;99.90
9987;DHT22;5033;46.310;11.214;2023-04-01T11:39:33;19.00;99.90
9987;DHT22;5033;46.310;11.214;2023-04-01T11:42:10;19.30;99.90
9987;DHT22;5033;46.310;11.214;2023-04-01T11:44:42;19.20;99.90
9987;DHT22;5033;46.310;11.214;2023-04-01T11:47:27;18.70;99.90
9987;DHT22;5033;46.310;11.214;2023-04-01T11:50:11;18.10;99.90
9987;DHT22;5033;46.310;11.214;2023-04-01T11:53:02;18.30;99.90
9987;DHT22;5033;46.310;11.214;2023-04-01T11:55:38;18.90;99.90
9987;DHT22;5033;46.310;11.214;2023-04-01T11:58:28;19.60;99.90
9987;DHT22;5033;46.310;11.214;2023-04-01T12:01:05;19.30;99.90
9987;DHT22;5033;46.310;11.214;2023-04-01T12:06:44;19.60;99.90
9987;DHT22;5033;46.310;11.214;2023-04-01T12:09:22;19.50;99.90
9987;DHT22;5033;46.310;11.214;2023-04-01T12:12:03;19.20;99.90
9987;DHT22;5033;46.310;11.214;2023-04-01T12:14:42;19.10;99.90
9987;DHT22;5033;46.310;11.214;2023-04-01T12:17:23;18.80;99.90
9987;DHT22;5033;46.310;11.214;2023-04-01T12:19:58;18.50;99.90
9987;DHT22;5033;46.310;11.214;2023-04-01T12:22:38;18.40;99.90
9987;DHT22;5033;46.310;11.214;2023-04-01T12:25:33;18.50;99.90
9987;DHT22;5033;46.310;11.214;2023-04-01T12:28:10;18.50;99.90
9987;DHT22;5033;46.310;11.214;2023-04-01T12:30:52;18.40;99.90
9987;DHT22;5033;46.310;11.214;2023-04-01T12:36:40;18.50;99.90
9987;DHT22;5033;46.310;11.214;2023-04-01T12:39:24;18.50;99.90
9987;DHT22;5033;46.310;11.214;2023-04-01T12:42:04;18.50;99.90
9987;DHT22;5033;46.310;11.214;2023-04-01T12:44:45;18.40;99.90
9987;DHT22;5033;46.310;11.214;2023-04-01T12:47:55;18.30;99.90
9987;DHT22;5033;46.310;11.214;2023-04-01T12:50:42;18.10;99.90
9987;DHT22;5033;46.310;11.214;2023-04-01T12:53:28;18.30;99.90
9987;DHT22;5033;46.310;11.214;2023-04-01T12:56:11;19.10;99.90
9987;DHT22;5033;46.310;11.214;2023-04-01T12:59:08;19.70;99.90
9987;DHT22;5033;46.310;11.214;2023-04-01T13:02:01;20.20;99.90
9987;DHT22;5033;46.310;11.214;2023-04-01T13:07:59;19.40;99.90
9987;DHT22;5033;46.310;11.214;2023-04-01T13:10:49;19.20;99.90
9987;DHT22;5033;46.310;11.214;2023-04-01T13:13:41;18.80;99.90
9987;DHT22;5033;46.310;11.214;2023-04-01T13:16:18;18.60;99.90
9987;DHT22;5033;46.310;11.214;2023-04-01T13:18:55;18.50;99.90
9987;DHT22;5033;46.310;11.214;2023-04-01T13:21:34;18.70;99.90
9987;DHT22;5033;46.310;11.214;2023-04-01T13:24:11;18.80;99.90
9987;DHT22;5033;46.310;11.214;2023-04-01T13:26:53;18.80;99.90
9987;DHT22;5033;46.310;11.214;2023-04-01T13:29:25;18.80;99.90
9987;DHT22;5033;46.310;11.214;2023-04-01T13:32:10;18.50;99.90
9987;DHT22;5033;46.310;11.214;2023-04-01T13:34:48;18.40;99.90
9987;DHT22;5033;46.310;11.214;2023-04-01T13:37:28;18.30;99.90
9987;DHT22;5033;46.310;11.214;2023-04-01T13:40:23;18.10;99.90
9987;DHT22;5033;46.310;11.214;2023-04-01T13:42:55;18.10;99.90
9987;DHT22;5033;46.310;11.214;2023-04-01T13:45:26;18.20;99.90
9987;DHT22;5033;46.310;11.214;2023-04-01T13:48:24;18.60;99.90
9987;DHT22;5033;46.310;11.214;2023-04-01T13:54:07;19.60;99.90
9987;DHT22;5033;46.310;11.214;2023-04-01T13:56:45;20.20;99.90
9987;DHT22;5033;46.310;11.214;2023-04-01T14:02:29;20.90;99.90
9987;DHT22;5033;46.310;11.214;2023-04-01T14:05:28;20.90;99.90
9987;DHT22;5033;46.310;11.214;2023-04-01T14:08:06;20.90;99.90
9987;DHT22;5033;46.310;11.214;2023-04-01T14:10:43;20.90;99.90
9987;DHT22;5033;46.310;11.214;2023-04-01T14:13:17;20.80;98.70
9987;DHT22;5033;46.310;11.214;2023-04-01T14:15:59;20.60;99.70
9987;DHT22;5033;46.310;11.214;2023-04-01T14:18:53;20.30;99.60
9987;DHT22;5033;46.310;11.214;2023-04-01T14:21:33;20.10;98.00
9987;DHT22;5033;46.310;11.214;2023-04-01T14:24:22;20.10;99.60
9987;DHT22;5033;46.310;11.214;2023-04-01T14:27:24;20.10;96.40
9987;DHT22;5033;46.310;11.214;2023-04-01T14:30:04;20.00;95.30
9987;DHT22;5033;46.310;11.214;2023-04-01T14:32:48;19.90;97.00
9987;DHT22;5033;46.310;11.214;2023-04-01T14:35:28;19.70;97.60
9987;DHT22;5033;46.310;11.214;2023-04-01T14:38:06;19.50;95.80
9987;DHT22;5033;46.310;11.214;2023-04-01T14:40:49;19.30;94.40
9987;DHT22;5033;46.310;11.214;2023-04-01T14:43:49;19.10;95.10
9987;DHT22;5033;46.310;11.214;2023-04-01T14:46:36;19.00;95.90
9987;DHT22;5033;46.310;11.214;2023-04-01T14:49:16;19.00;97.00
9987;DHT22;5033;46.310;11.214;2023-04-01T14:51:46;19.00;97.10
9987;DHT22;5033;46.310;11.214;2023-04-01T14:54:16;18.80;97.60
9987;DHT22;5033;46.310;11.214;2023-04-01T14:56:49;18.80;97.10
9987;DHT22;5033;46.310;11.214;2023-04-01T14:59:27;18.70;97.00
9987;DHT22;5033;46.310;11.214;2023-04-01T15:02:00;18.50;96.50
9987;DHT22;5033;46.310;11.214;2023-04-01T15:04:43;18.40;98.10
9987;DHT22;5033;46.310;11.214;2023-04-01T15:07:25;18.30;99.10
9987;DHT22;5033;46.310;11.214;2023-04-01T15:10:03;18.20;99.20
9987;DHT22;5033;46.310;11.214;2023-04-01T15:12:39;18.00;99.90
9987;DHT22;5033;46.310;11.214;2023-04-01T15:15:21;17.90;99.90
9987;DHT22;5033;46.310;11.214;2023-04-01T15:18:03;17.80;99.90
9987;DHT22;5033;46.310;11.214;2023-04-01T15:21:02;17.80;99.90
9987;DHT22;5033;46.310;11.214;2023-04-01T15:23:45;17.70;99.90
9987;DHT22;5033;46.310;11.214;2023-04-01T15:26:50;17.70;99.90
9987;DHT22;5033;46.310;11.214;2023-04-01T15:29:43;17.60;99.90
9987;DHT22;5033;46.310;11.214;2023-04-01T15:32:17;17.60;99.90
9987;DHT22;5033;46.310;11.214;2023-04-01T15:34:53;17.50;99.10
9987;DHT22;5033;46.310;11.214;2023-04-01T15:37:33;17.50;99.20
9987;DHT22;5033;46.310;11.214;2023-04-01T15:40:11;17.40;98.60
9987;DHT22;5033;46.310;11.214;2023-04-01T15:42:54;17.40;98.70
9987;DHT22;5033;46.310;11.214;2023-04-01T15:45:34;17.40;97.80
9987;DHT22;5033;46.310;11.214;2023-04-01T15:48:13;17.40;97.70
9987;DHT22;5033;46.310;11.214;2023-04-01T15:51:01;17.40;97.80
9987;DHT22;5033;46.310;11.214;2023-04-01T15:53:49;17.30;98.40
9987;DHT22;5033;46.310;11.214;2023-04-01T15:56:28;17.30;98.00
9987;DHT22;5033;46.310;11.214;2023-04-01T15:59:08;17.10;97.50
9987;DHT22;5033;46.310;11.214;2023-04-01T16:01:44;17.00;97.40
9987;DHT22;5033;46.310;11.214;2023-04-01T16:04:38;16.90;97.40
9987;DHT22;5033;46.310;11.214;2023-04-01T16:07:28;16.80;97.10
9987;DHT22;5033;46.310;11.214;2023-04-01T16:10:06;16.80;99.80
9987;DHT22;5033;46.310;11.214;2023-04-01T16:12:44;16.60;99.90
9987;DHT22;5033;46.310;11.214;2023-04-01T16:15:24;16.40;99.90
9987;DHT22;5033;46.310;11.214;2023-04-01T16:18:09;16.30;99.00
9987;DHT22;5033;46.310;11.214;2023-04-01T16:20:44;16.10;99.90
9987;DHT22;5033;46.310;11.214;2023-04-01T16:23:18;16.10;99.90
9987;DHT22;5033;46.310;11.214;2023-04-01T16:25:52;16.10;99.90
9987;DHT22;5033;46.310;11.214;2023-04-01T16:28:28;16.00;99.90
9987;DHT22;5033;46.310;11.214;2023-04-01T16:31:00;15.90;99.90
9987;DHT22;5033;46.310;11.214;2023-04-01T16:33:37;15.80;99.90
9987;DHT22;5033;46.310;11.214;2023-04-01T16:36:11;15.60;99.90
9987;DHT22;5033;46.310;11.214;2023-04-01T16:38:46;15.50;99.60
9987;DHT22;5033;46.310;11.214;2023-04-01T16:41:17;15.50;99.60
9987;DHT22;5033;46.310;11.214;2023-04-01T16:43:48;15.50;99.90
9987;DHT22;5033;46.310;11.214;2023-04-01T16:46:34;15.50;99.90
9987;DHT22;5033;46.310;11.214;2023-04-01T16:49:23;15.50;99.90
9987;DHT22;5033;46.310;11.214;2023-04-01T16:51:53;15.50;99.90
9987;DHT22;5033;46.310;11.214;2023-04-01T16:54:28;15.40;99.90
9987;DHT22;5033;46.310;11.214;2023-04-01T16:57:04;15.40;99.90
9987;DHT22;5033;46.310;11.214;2023-04-01T16:59:46;15.30;99.90
9987;DHT22;5033;46.310;11.214;2023-04-01T17:02:17;15.30;99.90
9987;DHT22;5033;46.310;11.214;2023-04-01T17:04:47;15.30;99.90
9987;DHT22;5033;46.310;11.214;2023-04-01T17:07:25;15.30;99.90
9987;DHT22;5033;46.310;11.214;2023-04-01T17:10:05;15.30;99.90
9987;DHT22;5033;46.310;11.214;2023-04-01T17:12:45;15.30;99.90
9987;DHT22;5033;46.310;11.214;2023-04-01T17:15:23;15.20;99.90
9987;DHT22;5033;46.310;11.214;2023-04-01T17:18:00;15.10;99.90
9987;DHT22;5033;46.310;11.214;2023-04-01T17:20:41;15.10;99.90
9987;DHT22;5033;46.310;11.214;2023-04-01T17:23:16;15.10;99.90
9987;DHT22;5033;46.310;11.214;2023-04-01T17:25:55;15.00;99.90
9987;DHT22;5033;46.310;11.214;2023-04-01T17:28:31;15.00;99.90
9987;DHT22;5033;46.310;11.214;2023-04-01T17:31:07;14.90;99.90
9987;DHT22;5033;46.310;11.214;2023-04-01T17:33:45;14.90;99.90
9987;DHT22;5033;46.310;11.214;2023-04-01T17:36:21;14.90;99.90
9987;DHT22;5033;46.310;11.214;2023-04-01T17:39:01;14.80;99.90
9987;DHT22;5033;46.310;11.214;2023-04-01T17:41:42;14.70;99.90
9987;DHT22;5033;46.310;11.214;2023-04-01T17:44:19;14.70;99.90
9987;DHT22;5033;46.310;11.214;2023-04-01T17:47:03;14.60;99.90
9987;DHT22;5033;46.310;11.214;2023-04-01T17:49:38;14.60;99.90
9987;DHT22;5033;46.310;11.214;2023-04-01T17:52:10;14.50;99.90
9987;DHT22;5033;46.310;11.214;2023-04-01T17:54:49;14.40;99.90
9987;DHT22;5033;46.310;11.214;2023-04-01T17:57:37;14.40;99.90
9987;DHT22;5033;46.310;11.214;2023-04-01T18:00:18;14.30;99.90
9987;DHT22;5033;46.310;11.214;2023-04-01T18:02:53;14.40;99.90
9987;DHT22;5033;46.310;11.214;2023-04-01T18:05:42;14.40;99.90
9987;DHT22;5033;46.310;11.214;2023-04-01T18:08:15;14.40;99.90
9987;DHT22;5033;46.310;11.214;2023-04-01T18:10:54;14.30;99.90
9987;DHT22;5033;46.310;11.214;2023-04-01T18:13:45;14.20;99.90